Mt. Parna Berlian 2 — PNVY — position and weather

sailwx.info

Track history (hours):
 
Tides and Currents Weather Stations Pressure Air Temp Water Temp Dewpoint Dewpoint Depression Visibility Wind Speed Wind Dir Waves Ship Positions

Mt. Parna Berlian 2

Last reported at 2018-Apr-24 08:45 UTC. Time now 2018-Apr-24 18:33 UTC.
Position S 07°07' E 112°40'.

Length 126 m; draft 5.9 m.

Type: Ship (hazmat cat A). MMSI: 525015816.

Date/timePositionNaut miles runAvg speedWind from/ knotsBaromVisibWave heightAir tempDewpointWater temp
2018-Apr-24 08:45S 07°07' E 112°40'0 0.0
2018-Apr-24 04:24S 07°07' E 112°40'0 0.0
2018-Apr-24 03:57S 07°07' E 112°40'0 0.0
2018-Apr-24 02:42S 07°07' E 112°40'0 0.0
2018-Apr-23 06:57S 07°07' E 112°40'0 0.0
2018-Apr-23 00:15S 07°07' E 112°40'0 0.0
2018-Apr-22 22:38S 07°07' E 112°40'0 0.1
2018-Apr-22 22:12S 07°07' E 112°40'0 0.1
2018-Apr-22 20:56S 07°07' E 112°40'0 0.1
2018-Apr-22 20:17S 07°07' E 112°40'0 0.0
2018-Apr-22 19:54S 07°07' E 112°40'0 0.0
2018-Apr-22 17:35S 07°07' E 112°40'0 0.0
2018-Apr-22 17:08S 07°07' E 112°40'0 0.0
2018-Apr-22 16:11S 07°07' E 112°40'0 0.2
2018-Apr-22 15:50S 07°07' E 112°40'0 0.0
2018-Apr-22 15:27S 07°07' E 112°40'0 0.1
2018-Apr-22 14:41S 07°07' E 112°40'0 0.0
2018-Apr-22 14:14S 07°07' E 112°40'0 0.0
2018-Apr-22 13:44S 07°07' E 112°40'0 0.0
2018-Apr-22 13:11S 07°07' E 112°40'0 0.0
2018-Apr-22 12:56S 07°07' E 112°40'0 0.0
2018-Apr-22 12:20S 07°07' E 112°40'0 0.0
2018-Apr-22 10:26S 07°07' E 112°40'0 0.0
2018-Apr-21 23:05S 07°07' E 112°40'0 0.0
2018-Apr-21 22:41S 07°07' E 112°40'0 0.0
2018-Apr-21 18:53S 07°07' E 112°40'0 0.0
2018-Apr-21 16:23S 07°07' E 112°40'0 0.1
2018-Apr-21 13:41S 07°07' E 112°40'1 0.2
2018-Apr-21 08:00S 07°09' E 112°40'0 0.0
2018-Apr-21 06:57S 07°09' E 112°40'0 0.0
2018-Apr-21 04:45S 07°09' E 112°40'0 0.0
2018-Apr-21 01:18S 07°09' E 112°40'0 0.0
2018-Apr-21 00:51S 07°09' E 112°40'0 0.0
2018-Apr-20 18:15S 07°09' E 112°40'0 0.0
2018-Apr-20 18:00S 07°09' E 112°40'0 0.0
2018-Apr-20 17:28S 07°09' E 112°40'0 0.7
2018-Apr-20 17:00S 07°08' E 112°40'1 3.0
2018-Apr-20 16:30S 07°07' E 112°40'3 5.9
2018-Apr-20 15:58S 07°04' E 112°40'612.4
2018-Apr-20 15:29S 06°58' E 112°42'510.5
2018-Apr-20 14:59S 06°54' E 112°44'4 8.3
2018-Apr-20 14:29S 06°50' E 112°46'1 2.1
2018-Apr-20 14:00S 06°50' E 112°47'0 0.0
2018-Apr-20 13:29S 06°50' E 112°47'0 0.0
2018-Apr-20 13:00S 06°50' E 112°47'0 0.0
2018-Apr-20 12:29S 06°50' E 112°47'0 0.2
2018-Apr-20 11:52S 06°50' E 112°47'1 2.2
2018-Apr-20 11:30S 06°50' E 112°48'  
Track history (hours):
 
Tides and Currents Weather Stations Pressure Air Temp Water Temp Dewpoint Dewpoint Depression Visibility Wind Speed Wind Dir Waves Ship Positions

Mt. Parna Berlian 2

Last reported at 2018-Apr-24 08:45 UTC. Time now 2018-Apr-24 18:33 UTC.
Position S 07°07' E 112°40'.

Length 126 m; draft 5.9 m.

Type: Ship (hazmat cat A). MMSI: 525015816.

Date/timePositionNaut miles runAvg speedWind from/ knotsBaromVisibWave heightAir tempDewpointWater temp
2018-Apr-24 08:45S 07°07' E 112°40'0 0.0
2018-Apr-24 04:24S 07°07' E 112°40'0 0.0
2018-Apr-24 03:57S 07°07' E 112°40'0 0.0
2018-Apr-24 02:42S 07°07' E 112°40'0 0.0
2018-Apr-23 06:57S 07°07' E 112°40'0 0.0
2018-Apr-23 00:15S 07°07' E 112°40'0 0.0
2018-Apr-22 22:38S 07°07' E 112°40'0 0.1
2018-Apr-22 22:12S 07°07' E 112°40'0 0.1
2018-Apr-22 20:56S 07°07' E 112°40'0 0.1
2018-Apr-22 20:17S 07°07' E 112°40'0 0.0
2018-Apr-22 19:54S 07°07' E 112°40'0 0.0
2018-Apr-22 17:35S 07°07' E 112°40'0 0.0
2018-Apr-22 17:08S 07°07' E 112°40'0 0.0
2018-Apr-22 16:11S 07°07' E 112°40'0 0.2
2018-Apr-22 15:50S 07°07' E 112°40'0 0.0
2018-Apr-22 15:27S 07°07' E 112°40'0 0.1
2018-Apr-22 14:41S 07°07' E 112°40'0 0.0
2018-Apr-22 14:14S 07°07' E 112°40'0 0.0
2018-Apr-22 13:44S 07°07' E 112°40'0 0.0
2018-Apr-22 13:11S 07°07' E 112°40'0 0.0
2018-Apr-22 12:56S 07°07' E 112°40'0 0.0
2018-Apr-22 12:20S 07°07' E 112°40'0 0.0
2018-Apr-22 10:26S 07°07' E 112°40'0 0.0
2018-Apr-21 23:05S 07°07' E 112°40'0 0.0
2018-Apr-21 22:41S 07°07' E 112°40'0 0.0
2018-Apr-21 18:53S 07°07' E 112°40'0 0.0
2018-Apr-21 16:23S 07°07' E 112°40'0 0.1
2018-Apr-21 13:41S 07°07' E 112°40'1 0.2
2018-Apr-21 08:00S 07°09' E 112°40'0 0.0
2018-Apr-21 06:57S 07°09' E 112°40'0 0.0
2018-Apr-21 04:45S 07°09' E 112°40'0 0.0
2018-Apr-21 01:18S 07°09' E 112°40'0 0.0
2018-Apr-21 00:51S 07°09' E 112°40'0 0.0
2018-Apr-20 18:15S 07°09' E 112°40'0 0.0
2018-Apr-20 18:00S 07°09' E 112°40'0 0.0
2018-Apr-20 17:28S 07°09' E 112°40'0 0.7
2018-Apr-20 17:00S 07°08' E 112°40'1 3.0
2018-Apr-20 16:30S 07°07' E 112°40'3 5.9
2018-Apr-20 15:58S 07°04' E 112°40'612.4
2018-Apr-20 15:29S 06°58' E 112°42'510.5
2018-Apr-20 14:59S 06°54' E 112°44'4 8.3
2018-Apr-20 14:29S 06°50' E 112°46'1 2.1
2018-Apr-20 14:00S 06°50' E 112°47'0 0.0
2018-Apr-20 13:29S 06°50' E 112°47'0 0.0
2018-Apr-20 13:00S 06°50' E 112°47'0 0.0
2018-Apr-20 12:29S 06°50' E 112°47'0 0.2
2018-Apr-20 11:52S 06°50' E 112°47'1 2.2
2018-Apr-20 11:30S 06°50' E 112°48'  

Dump ship's entire track history